sensor_id;sensor_type;location;lat;lon;timestamp;P1;durP1;ratioP1;P2;durP2;ratioP2
13204;SDS011;6667;52.634;9.226;2023-02-16T00:00:49;21.47;;;11.53;;
13204;SDS011;6667;52.634;9.226;2023-02-16T00:03:17;20.33;;;11.80;;
13204;SDS011;6667;52.634;9.226;2023-02-16T00:05:46;20.47;;;10.27;;
13204;SDS011;6667;52.634;9.226;2023-02-16T00:08:14;18.43;;;11.07;;
13204;SDS011;6667;52.634;9.226;2023-02-16T00:10:40;20.93;;;11.40;;
13204;SDS011;6667;52.634;9.226;2023-02-16T00:13:28;17.83;;;11.00;;
13204;SDS011;6667;52.634;9.226;2023-02-16T00:16:10;18.00;;;10.43;;
13204;SDS011;6667;52.634;9.226;2023-02-16T00:18:42;18.03;;;10.53;;
13204;SDS011;6667;52.634;9.226;2023-02-16T00:21:10;18.17;;;10.77;;
13204;SDS011;6667;52.634;9.226;2023-02-16T00:23:37;22.13;;;11.83;;
13204;SDS011;6667;52.634;9.226;2023-02-16T00:26:04;19.27;;;10.37;;
13204;SDS011;6667;52.634;9.226;2023-02-16T00:28:36;18.67;;;11.73;;
13204;SDS011;6667;52.634;9.226;2023-02-16T00:31:02;20.87;;;10.77;;
13204;SDS011;6667;52.634;9.226;2023-02-16T00:33:29;18.00;;;11.30;;
13204;SDS011;6667;52.634;9.226;2023-02-16T00:35:56;19.03;;;11.50;;
13204;SDS011;6667;52.634;9.226;2023-02-16T00:38:24;19.00;;;11.07;;
13204;SDS011;6667;52.634;9.226;2023-02-16T00:40:50;20.97;;;11.40;;
13204;SDS011;6667;52.634;9.226;2023-02-16T00:43:24;19.90;;;11.70;;
13204;SDS011;6667;52.634;9.226;2023-02-16T00:45:53;19.27;;;10.63;;
13204;SDS011;6667;52.634;9.226;2023-02-16T00:48:20;18.13;;;11.20;;
13204;SDS011;6667;52.634;9.226;2023-02-16T00:50:47;18.60;;;10.90;;
13204;SDS011;6667;52.634;9.226;2023-02-16T00:53:14;19.50;;;10.40;;
13204;SDS011;6667;52.634;9.226;2023-02-16T00:55:42;17.53;;;10.73;;
13204;SDS011;6667;52.634;9.226;2023-02-16T00:58:12;19.47;;;11.50;;
13204;SDS011;6667;52.634;9.226;2023-02-16T01:00:43;18.17;;;10.57;;
13204;SDS011;6667;52.634;9.226;2023-02-16T01:03:13;18.53;;;11.27;;
13204;SDS011;6667;52.634;9.226;2023-02-16T01:05:41;20.20;;;11.77;;
13204;SDS011;6667;52.634;9.226;2023-02-16T01:08:09;19.10;;;10.67;;
13204;SDS011;6667;52.634;9.226;2023-02-16T01:10:55;18.40;;;10.83;;
13204;SDS011;6667;52.634;9.226;2023-02-16T01:13:37;21.40;;;11.50;;
13204;SDS011;6667;52.634;9.226;2023-02-16T01:16:09;23.07;;;12.53;;
13204;SDS011;6667;52.634;9.226;2023-02-16T01:18:38;20.33;;;12.00;;
13204;SDS011;6667;52.634;9.226;2023-02-16T01:21:04;19.40;;;11.23;;
13204;SDS011;6667;52.634;9.226;2023-02-16T01:23:31;22.57;;;11.90;;
13204;SDS011;6667;52.634;9.226;2023-02-16T01:25:59;19.73;;;12.37;;
13204;SDS011;6667;52.634;9.226;2023-02-16T01:28:26;19.87;;;11.10;;
13204;SDS011;6667;52.634;9.226;2023-02-16T01:30:52;23.93;;;12.23;;
13204;SDS011;6667;52.634;9.226;2023-02-16T01:33:20;17.50;;;11.27;;
13204;SDS011;6667;52.634;9.226;2023-02-16T01:35:47;21.97;;;12.10;;
13204;SDS011;6667;52.634;9.226;2023-02-16T01:38:15;19.10;;;11.33;;
13204;SDS011;6667;52.634;9.226;2023-02-16T01:40:43;21.97;;;12.30;;
13204;SDS011;6667;52.634;9.226;2023-02-16T01:43:18;21.67;;;12.23;;
13204;SDS011;6667;52.634;9.226;2023-02-16T01:45:47;19.50;;;11.93;;
13204;SDS011;6667;52.634;9.226;2023-02-16T01:48:20;19.83;;;10.73;;
13204;SDS011;6667;52.634;9.226;2023-02-16T01:50:52;24.20;;;12.73;;
13204;SDS011;6667;52.634;9.226;2023-02-16T01:53:25;19.93;;;11.90;;
13204;SDS011;6667;52.634;9.226;2023-02-16T01:55:57;18.13;;;11.03;;
13204;SDS011;6667;52.634;9.226;2023-02-16T01:58:30;19.73;;;10.67;;
13204;SDS011;6667;52.634;9.226;2023-02-16T02:04:09;23.20;;;12.13;;
13204;SDS011;6667;52.634;9.226;2023-02-16T02:06:58;18.57;;;10.90;;
13204;SDS011;6667;52.634;9.226;2023-02-16T02:09:27;20.80;;;12.30;;
13204;SDS011;6667;52.634;9.226;2023-02-16T02:12:02;18.80;;;11.47;;
13204;SDS011;6667;52.634;9.226;2023-02-16T02:14:36;20.33;;;12.00;;
13204;SDS011;6667;52.634;9.226;2023-02-16T02:17:05;22.80;;;11.17;;
13204;SDS011;6667;52.634;9.226;2023-02-16T02:19:37;20.10;;;11.77;;
13204;SDS011;6667;52.634;9.226;2023-02-16T02:22:16;20.30;;;11.17;;
13204;SDS011;6667;52.634;9.226;2023-02-16T02:25:22;25.60;;;12.80;;
13204;SDS011;6667;52.634;9.226;2023-02-16T02:28:06;22.63;;;12.83;;
13204;SDS011;6667;52.634;9.226;2023-02-16T02:30:41;25.80;;;13.50;;
13204;SDS011;6667;52.634;9.226;2023-02-16T02:33:16;23.97;;;13.77;;
13204;SDS011;6667;52.634;9.226;2023-02-16T02:35:53;26.20;;;13.80;;
13204;SDS011;6667;52.634;9.226;2023-02-16T02:38:30;23.50;;;14.77;;
13204;SDS011;6667;52.634;9.226;2023-02-16T02:41:07;29.00;;;14.83;;
13204;SDS011;6667;52.634;9.226;2023-02-16T02:43:42;26.70;;;14.43;;
13204;SDS011;6667;52.634;9.226;2023-02-16T02:46:15;30.07;;;14.43;;
13204;SDS011;6667;52.634;9.226;2023-02-16T02:48:48;27.87;;;16.07;;
13204;SDS011;6667;52.634;9.226;2023-02-16T02:51:15;26.27;;;14.10;;
13204;SDS011;6667;52.634;9.226;2023-02-16T02:53:55;23.63;;;15.50;;
13204;SDS011;6667;52.634;9.226;2023-02-16T02:56:39;25.70;;;14.73;;
13204;SDS011;6667;52.634;9.226;2023-02-16T02:59:26;30.03;;;16.13;;
13204;SDS011;6667;52.634;9.226;2023-02-16T03:02:14;29.90;;;17.13;;
13204;SDS011;6667;52.634;9.226;2023-02-16T03:04:43;29.00;;;16.50;;
13204;SDS011;6667;52.634;9.226;2023-02-16T03:07:11;30.67;;;16.03;;
13204;SDS011;6667;52.634;9.226;2023-02-16T03:09:39;30.40;;;16.93;;
13204;SDS011;6667;52.634;9.226;2023-02-16T03:12:06;31.97;;;17.23;;
13204;SDS011;6667;52.634;9.226;2023-02-16T03:14:54;32.17;;;17.70;;
13204;SDS011;6667;52.634;9.226;2023-02-16T03:17:24;31.47;;;18.33;;
13204;SDS011;6667;52.634;9.226;2023-02-16T03:20:14;30.07;;;16.80;;
13204;SDS011;6667;52.634;9.226;2023-02-16T03:23:00;33.53;;;17.90;;
13204;SDS011;6667;52.634;9.226;2023-02-16T03:25:46;36.23;;;18.73;;
13204;SDS011;6667;52.634;9.226;2023-02-16T03:28:30;30.07;;;15.53;;
13204;SDS011;6667;52.634;9.226;2023-02-16T03:31:19;34.20;;;19.17;;
13204;SDS011;6667;52.634;9.226;2023-02-16T03:33:48;29.73;;;17.90;;
13204;SDS011;6667;52.634;9.226;2023-02-16T03:36:18;31.70;;;17.13;;
13204;SDS011;6667;52.634;9.226;2023-02-16T03:38:45;30.80;;;17.83;;
13204;SDS011;6667;52.634;9.226;2023-02-16T03:41:12;31.47;;;17.90;;
13204;SDS011;6667;52.634;9.226;2023-02-16T03:43:38;29.83;;;17.30;;
13204;SDS011;6667;52.634;9.226;2023-02-16T03:46:05;34.33;;;17.97;;
13204;SDS011;6667;52.634;9.226;2023-02-16T03:48:33;33.30;;;17.40;;
13204;SDS011;6667;52.634;9.226;2023-02-16T03:50:59;34.50;;;19.33;;
13204;SDS011;6667;52.634;9.226;2023-02-16T03:53:26;33.33;;;18.60;;
13204;SDS011;6667;52.634;9.226;2023-02-16T03:55:53;34.67;;;19.00;;
13204;SDS011;6667;52.634;9.226;2023-02-16T03:58:20;35.20;;;19.27;;
13204;SDS011;6667;52.634;9.226;2023-02-16T04:00:48;33.90;;;18.97;;
13204;SDS011;6667;52.634;9.226;2023-02-16T04:03:15;31.93;;;19.30;;
13204;SDS011;6667;52.634;9.226;2023-02-16T04:05:44;35.73;;;19.83;;
13204;SDS011;6667;52.634;9.226;2023-02-16T04:08:11;34.20;;;19.63;;
13204;SDS011;6667;52.634;9.226;2023-02-16T04:10:38;36.27;;;19.33;;
13204;SDS011;6667;52.634;9.226;2023-02-16T04:13:04;36.57;;;20.10;;
13204;SDS011;6667;52.634;9.226;2023-02-16T04:15:30;32.63;;;19.70;;
13204;SDS011;6667;52.634;9.226;2023-02-16T04:17:57;34.53;;;18.40;;
13204;SDS011;6667;52.634;9.226;2023-02-16T04:20:26;28.67;;;19.30;;
13204;SDS011;6667;52.634;9.226;2023-02-16T04:22:56;33.17;;;19.00;;
13204;SDS011;6667;52.634;9.226;2023-02-16T04:25:23;34.30;;;19.33;;
13204;SDS011;6667;52.634;9.226;2023-02-16T04:27:50;30.43;;;18.27;;
13204;SDS011;6667;52.634;9.226;2023-02-16T04:30:17;30.60;;;19.23;;
13204;SDS011;6667;52.634;9.226;2023-02-16T04:32:45;39.40;;;19.43;;
13204;SDS011;6667;52.634;9.226;2023-02-16T04:35:13;34.60;;;19.37;;
13204;SDS011;6667;52.634;9.226;2023-02-16T04:37:40;33.70;;;18.40;;
13204;SDS011;6667;52.634;9.226;2023-02-16T04:40:09;36.23;;;19.70;;
13204;SDS011;6667;52.634;9.226;2023-02-16T04:42:37;30.77;;;17.87;;
13204;SDS011;6667;52.634;9.226;2023-02-16T04:45:04;30.83;;;18.93;;
13204;SDS011;6667;52.634;9.226;2023-02-16T04:47:31;37.00;;;19.93;;
13204;SDS011;6667;52.634;9.226;2023-02-16T04:49:58;35.47;;;19.23;;
13204;SDS011;6667;52.634;9.226;2023-02-16T04:52:24;29.80;;;19.00;;
13204;SDS011;6667;52.634;9.226;2023-02-16T04:54:51;27.97;;;17.50;;
13204;SDS011;6667;52.634;9.226;2023-02-16T04:57:19;37.03;;;20.57;;
13204;SDS011;6667;52.634;9.226;2023-02-16T04:59:48;34.17;;;19.40;;
13204;SDS011;6667;52.634;9.226;2023-02-16T05:02:14;33.50;;;19.17;;
13204;SDS011;6667;52.634;9.226;2023-02-16T05:04:41;33.90;;;20.07;;
13204;SDS011;6667;52.634;9.226;2023-02-16T05:07:08;38.23;;;20.07;;
13204;SDS011;6667;52.634;9.226;2023-02-16T05:09:35;32.90;;;19.00;;
13204;SDS011;6667;52.634;9.226;2023-02-16T05:12:01;35.47;;;18.77;;
13204;SDS011;6667;52.634;9.226;2023-02-16T05:14:47;33.07;;;20.00;;
13204;SDS011;6667;52.634;9.226;2023-02-16T05:17:14;39.73;;;21.17;;
13204;SDS011;6667;52.634;9.226;2023-02-16T05:19:44;36.57;;;20.03;;
13204;SDS011;6667;52.634;9.226;2023-02-16T05:22:12;43.97;;;21.63;;
13204;SDS011;6667;52.634;9.226;2023-02-16T05:24:40;33.40;;;19.83;;
13204;SDS011;6667;52.634;9.226;2023-02-16T05:27:07;42.17;;;21.23;;
13204;SDS011;6667;52.634;9.226;2023-02-16T05:29:40;36.10;;;20.60;;
13204;SDS011;6667;52.634;9.226;2023-02-16T05:32:08;40.20;;;20.33;;
13204;SDS011;6667;52.634;9.226;2023-02-16T05:34:35;39.73;;;20.53;;
13204;SDS011;6667;52.634;9.226;2023-02-16T05:37:01;37.70;;;21.03;;
13204;SDS011;6667;52.634;9.226;2023-02-16T05:39:28;40.00;;;20.40;;
13204;SDS011;6667;52.634;9.226;2023-02-16T05:41:55;36.17;;;21.27;;
13204;SDS011;6667;52.634;9.226;2023-02-16T05:44:22;38.43;;;20.80;;
13204;SDS011;6667;52.634;9.226;2023-02-16T05:46:48;39.50;;;21.40;;
13204;SDS011;6667;52.634;9.226;2023-02-16T05:49:17;39.83;;;22.07;;
13204;SDS011;6667;52.634;9.226;2023-02-16T05:51:43;33.87;;;19.27;;
13204;SDS011;6667;52.634;9.226;2023-02-16T05:54:10;41.87;;;21.47;;
13204;SDS011;6667;52.634;9.226;2023-02-16T05:56:41;37.03;;;21.57;;
13204;SDS011;6667;52.634;9.226;2023-02-16T05:59:09;37.47;;;22.33;;
13204;SDS011;6667;52.634;9.226;2023-02-16T06:01:36;39.20;;;22.33;;
13204;SDS011;6667;52.634;9.226;2023-02-16T06:04:04;39.80;;;22.00;;
13204;SDS011;6667;52.634;9.226;2023-02-16T06:06:33;42.17;;;22.50;;
13204;SDS011;6667;52.634;9.226;2023-02-16T06:09:00;37.87;;;21.53;;
13204;SDS011;6667;52.634;9.226;2023-02-16T06:11:26;46.53;;;22.60;;
13204;SDS011;6667;52.634;9.226;2023-02-16T06:14:03;42.73;;;22.27;;
13204;SDS011;6667;52.634;9.226;2023-02-16T06:16:31;42.27;;;23.60;;
13204;SDS011;6667;52.634;9.226;2023-02-16T06:18:59;45.80;;;22.07;;
13204;SDS011;6667;52.634;9.226;2023-02-16T06:21:27;41.43;;;21.87;;
13204;SDS011;6667;52.634;9.226;2023-02-16T06:23:55;37.77;;;21.30;;
13204;SDS011;6667;52.634;9.226;2023-02-16T06:26:22;40.73;;;21.60;;
13204;SDS011;6667;52.634;9.226;2023-02-16T06:28:49;42.80;;;22.33;;
13204;SDS011;6667;52.634;9.226;2023-02-16T06:31:15;45.70;;;22.63;;
13204;SDS011;6667;52.634;9.226;2023-02-16T06:33:42;44.70;;;22.50;;
13204;SDS011;6667;52.634;9.226;2023-02-16T06:36:09;41.40;;;22.27;;
13204;SDS011;6667;52.634;9.226;2023-02-16T06:38:36;43.53;;;22.20;;
13204;SDS011;6667;52.634;9.226;2023-02-16T06:41:04;41.50;;;22.50;;
13204;SDS011;6667;52.634;9.226;2023-02-16T06:43:31;45.20;;;22.40;;
13204;SDS011;6667;52.634;9.226;2023-02-16T06:45:58;36.37;;;20.87;;
13204;SDS011;6667;52.634;9.226;2023-02-16T06:48:24;42.50;;;21.40;;
13204;SDS011;6667;52.634;9.226;2023-02-16T06:50:51;41.33;;;23.23;;
13204;SDS011;6667;52.634;9.226;2023-02-16T06:53:18;40.50;;;21.33;;
13204;SDS011;6667;52.634;9.226;2023-02-16T06:55:45;42.27;;;22.43;;
13204;SDS011;6667;52.634;9.226;2023-02-16T06:58:14;40.70;;;21.80;;
13204;SDS011;6667;52.634;9.226;2023-02-16T07:00:41;39.60;;;22.20;;
13204;SDS011;6667;52.634;9.226;2023-02-16T07:03:07;41.93;;;22.40;;
13204;SDS011;6667;52.634;9.226;2023-02-16T07:05:34;43.20;;;23.27;;
13204;SDS011;6667;52.634;9.226;2023-02-16T07:08:00;48.80;;;25.40;;
13204;SDS011;6667;52.634;9.226;2023-02-16T07:10:27;43.30;;;23.13;;
13204;SDS011;6667;52.634;9.226;2023-02-16T07:12:54;47.60;;;24.40;;
13204;SDS011;6667;52.634;9.226;2023-02-16T07:15:22;39.80;;;22.30;;
13204;SDS011;6667;52.634;9.226;2023-02-16T07:17:48;41.87;;;23.13;;
13204;SDS011;6667;52.634;9.226;2023-02-16T07:20:15;42.30;;;22.27;;
13204;SDS011;6667;52.634;9.226;2023-02-16T07:22:42;43.63;;;22.67;;
13204;SDS011;6667;52.634;9.226;2023-02-16T07:25:09;41.70;;;23.10;;
13204;SDS011;6667;52.634;9.226;2023-02-16T07:27:36;40.27;;;22.53;;
13204;SDS011;6667;52.634;9.226;2023-02-16T07:30:03;41.73;;;22.40;;
13204;SDS011;6667;52.634;9.226;2023-02-16T07:32:31;43.43;;;23.20;;
13204;SDS011;6667;52.634;9.226;2023-02-16T07:34:58;43.63;;;24.13;;
13204;SDS011;6667;52.634;9.226;2023-02-16T07:37:24;46.87;;;24.23;;
13204;SDS011;6667;52.634;9.226;2023-02-16T07:39:51;44.43;;;23.63;;
13204;SDS011;6667;52.634;9.226;2023-02-16T07:42:18;50.73;;;24.30;;
13204;SDS011;6667;52.634;9.226;2023-02-16T07:44:45;43.53;;;22.53;;
13204;SDS011;6667;52.634;9.226;2023-02-16T07:47:11;42.67;;;22.17;;
13204;SDS011;6667;52.634;9.226;2023-02-16T07:49:39;46.07;;;22.40;;
13204;SDS011;6667;52.634;9.226;2023-02-16T07:52:06;40.40;;;21.00;;
13204;SDS011;6667;52.634;9.226;2023-02-16T07:54:33;46.23;;;21.43;;
13204;SDS011;6667;52.634;9.226;2023-02-16T07:57:00;39.03;;;21.47;;
13204;SDS011;6667;52.634;9.226;2023-02-16T07:59:26;39.00;;;21.50;;
13204;SDS011;6667;52.634;9.226;2023-02-16T08:01:53;38.70;;;20.80;;
13204;SDS011;6667;52.634;9.226;2023-02-16T08:04:19;38.20;;;21.70;;
13204;SDS011;6667;52.634;9.226;2023-02-16T08:06:47;38.90;;;20.47;;
13204;SDS011;6667;52.634;9.226;2023-02-16T08:09:15;37.90;;;21.00;;
13204;SDS011;6667;52.634;9.226;2023-02-16T08:11:42;35.93;;;20.97;;
13204;SDS011;6667;52.634;9.226;2023-02-16T08:14:09;41.73;;;22.17;;
13204;SDS011;6667;52.634;9.226;2023-02-16T08:16:35;38.83;;;20.07;;
13204;SDS011;6667;52.634;9.226;2023-02-16T08:19:02;42.23;;;21.73;;
13204;SDS011;6667;52.634;9.226;2023-02-16T08:21:30;35.97;;;21.43;;
13204;SDS011;6667;52.634;9.226;2023-02-16T08:23:59;37.00;;;20.63;;
13204;SDS011;6667;52.634;9.226;2023-02-16T08:26:28;36.97;;;21.47;;
13204;SDS011;6667;52.634;9.226;2023-02-16T08:28:58;39.43;;;21.67;;
13204;SDS011;6667;52.634;9.226;2023-02-16T08:31:27;42.30;;;20.93;;
13204;SDS011;6667;52.634;9.226;2023-02-16T08:33:55;37.53;;;20.80;;
13204;SDS011;6667;52.634;9.226;2023-02-16T08:36:24;37.13;;;20.10;;
13204;SDS011;6667;52.634;9.226;2023-02-16T08:38:53;43.00;;;22.60;;
13204;SDS011;6667;52.634;9.226;2023-02-16T08:41:22;36.77;;;21.77;;
13204;SDS011;6667;52.634;9.226;2023-02-16T08:43:53;41.30;;;21.80;;
13204;SDS011;6667;52.634;9.226;2023-02-16T08:46:20;39.27;;;21.37;;
13204;SDS011;6667;52.634;9.226;2023-02-16T08:48:47;39.67;;;21.83;;
13204;SDS011;6667;52.634;9.226;2023-02-16T08:51:14;37.87;;;20.63;;
13204;SDS011;6667;52.634;9.226;2023-02-16T08:53:42;38.40;;;21.70;;
13204;SDS011;6667;52.634;9.226;2023-02-16T08:56:09;35.27;;;19.63;;
13204;SDS011;6667;52.634;9.226;2023-02-16T08:58:37;40.07;;;22.40;;
13204;SDS011;6667;52.634;9.226;2023-02-16T09:01:04;39.97;;;22.00;;
13204;SDS011;6667;52.634;9.226;2023-02-16T09:03:32;37.63;;;18.57;;
13204;SDS011;6667;52.634;9.226;2023-02-16T09:06:00;39.63;;;21.03;;
13204;SDS011;6667;52.634;9.226;2023-02-16T09:08:29;36.50;;;19.90;;
13204;SDS011;6667;52.634;9.226;2023-02-16T09:10:59;37.47;;;20.10;;
13204;SDS011;6667;52.634;9.226;2023-02-16T09:13:26;37.50;;;19.27;;
13204;SDS011;6667;52.634;9.226;2023-02-16T09:15:59;38.67;;;22.53;;
13204;SDS011;6667;52.634;9.226;2023-02-16T09:18:27;38.00;;;21.20;;
13204;SDS011;6667;52.634;9.226;2023-02-16T09:20:53;43.20;;;21.43;;
13204;SDS011;6667;52.634;9.226;2023-02-16T09:23:21;37.87;;;22.23;;
13204;SDS011;6667;52.634;9.226;2023-02-16T09:25:47;39.77;;;21.93;;
13204;SDS011;6667;52.634;9.226;2023-02-16T09:28:14;37.63;;;20.50;;
13204;SDS011;6667;52.634;9.226;2023-02-16T09:30:41;40.43;;;21.97;;
13204;SDS011;6667;52.634;9.226;2023-02-16T09:33:09;37.33;;;20.07;;
13204;SDS011;6667;52.634;9.226;2023-02-16T09:35:37;37.43;;;20.77;;
13204;SDS011;6667;52.634;9.226;2023-02-16T09:38:04;40.10;;;21.97;;
13204;SDS011;6667;52.634;9.226;2023-02-16T09:40:31;37.30;;;21.40;;
13204;SDS011;6667;52.634;9.226;2023-02-16T09:43:01;37.43;;;19.40;;
13204;SDS011;6667;52.634;9.226;2023-02-16T09:45:37;38.53;;;22.23;;
13204;SDS011;6667;52.634;9.226;2023-02-16T09:48:10;40.57;;;20.93;;
13204;SDS011;6667;52.634;9.226;2023-02-16T09:50:47;38.10;;;21.20;;
13204;SDS011;6667;52.634;9.226;2023-02-16T09:53:19;38.53;;;21.30;;
13204;SDS011;6667;52.634;9.226;2023-02-16T09:55:49;39.07;;;22.50;;
13204;SDS011;6667;52.634;9.226;2023-02-16T09:58:28;38.87;;;21.77;;
13204;SDS011;6667;52.634;9.226;2023-02-16T10:01:04;39.17;;;22.17;;
13204;SDS011;6667;52.634;9.226;2023-02-16T10:03:42;36.97;;;19.43;;
13204;SDS011;6667;52.634;9.226;2023-02-16T10:06:24;38.03;;;21.33;;
13204;SDS011;6667;52.634;9.226;2023-02-16T10:08:56;37.77;;;21.93;;
13204;SDS011;6667;52.634;9.226;2023-02-16T10:11:27;32.97;;;20.27;;
13204;SDS011;6667;52.634;9.226;2023-02-16T10:14:06;35.77;;;21.03;;
13204;SDS011;6667;52.634;9.226;2023-02-16T10:16:39;40.20;;;22.57;;
13204;SDS011;6667;52.634;9.226;2023-02-16T10:19:14;33.20;;;20.07;;
13204;SDS011;6667;52.634;9.226;2023-02-16T10:21:46;33.37;;;20.53;;
13204;SDS011;6667;52.634;9.226;2023-02-16T10:24:16;35.43;;;20.03;;
13204;SDS011;6667;52.634;9.226;2023-02-16T10:26:44;38.17;;;22.67;;
13204;SDS011;6667;52.634;9.226;2023-02-16T10:29:15;40.70;;;21.63;;
13204;SDS011;6667;52.634;9.226;2023-02-16T10:31:46;37.27;;;20.97;;
13204;SDS011;6667;52.634;9.226;2023-02-16T10:34:19;35.63;;;19.53;;
13204;SDS011;6667;52.634;9.226;2023-02-16T10:37:03;39.00;;;20.23;;
13204;SDS011;6667;52.634;9.226;2023-02-16T10:39:41;36.90;;;20.17;;
13204;SDS011;6667;52.634;9.226;2023-02-16T10:42:16;36.13;;;20.87;;
13204;SDS011;6667;52.634;9.226;2023-02-16T10:44:50;35.63;;;20.00;;
13204;SDS011;6667;52.634;9.226;2023-02-16T10:47:25;39.93;;;20.47;;
13204;SDS011;6667;52.634;9.226;2023-02-16T10:49:59;37.37;;;21.93;;
13204;SDS011;6667;52.634;9.226;2023-02-16T10:52:27;35.37;;;21.23;;
13204;SDS011;6667;52.634;9.226;2023-02-16T10:55:00;33.00;;;20.63;;
13204;SDS011;6667;52.634;9.226;2023-02-16T10:57:27;35.90;;;19.40;;
13204;SDS011;6667;52.634;9.226;2023-02-16T10:59:57;37.27;;;20.30;;
13204;SDS011;6667;52.634;9.226;2023-02-16T11:02:26;41.20;;;21.93;;
13204;SDS011;6667;52.634;9.226;2023-02-16T11:04:56;35.90;;;21.60;;
13204;SDS011;6667;52.634;9.226;2023-02-16T11:07:25;36.07;;;21.20;;
13204;SDS011;6667;52.634;9.226;2023-02-16T11:09:54;36.33;;;21.60;;
13204;SDS011;6667;52.634;9.226;2023-02-16T11:12:23;34.53;;;20.63;;
13204;SDS011;6667;52.634;9.226;2023-02-16T11:14:53;35.97;;;19.97;;
13204;SDS011;6667;52.634;9.226;2023-02-16T11:17:22;39.37;;;21.60;;
13204;SDS011;6667;52.634;9.226;2023-02-16T11:19:51;31.63;;;19.27;;
13204;SDS011;6667;52.634;9.226;2023-02-16T11:22:24;39.43;;;20.43;;
13204;SDS011;6667;52.634;9.226;2023-02-16T11:24:53;35.20;;;19.80;;
13204;SDS011;6667;52.634;9.226;2023-02-16T11:27:21;35.93;;;21.43;;
13204;SDS011;6667;52.634;9.226;2023-02-16T11:29:49;32.40;;;19.70;;
13204;SDS011;6667;52.634;9.226;2023-02-16T11:32:18;29.77;;;17.80;;
13204;SDS011;6667;52.634;9.226;2023-02-16T11:34:47;33.47;;;20.03;;
13204;SDS011;6667;52.634;9.226;2023-02-16T11:37:16;33.03;;;19.60;;
13204;SDS011;6667;52.634;9.226;2023-02-16T11:39:51;33.80;;;19.70;;
13204;SDS011;6667;52.634;9.226;2023-02-16T11:42:23;29.13;;;18.50;;
13204;SDS011;6667;52.634;9.226;2023-02-16T11:44:55;31.27;;;19.57;;
13204;SDS011;6667;52.634;9.226;2023-02-16T11:47:24;34.47;;;20.23;;
13204;SDS011;6667;52.634;9.226;2023-02-16T11:50:15;33.30;;;19.80;;
13204;SDS011;6667;52.634;9.226;2023-02-16T11:52:45;29.47;;;17.47;;
13204;SDS011;6667;52.634;9.226;2023-02-16T11:55:19;33.40;;;19.77;;
13204;SDS011;6667;52.634;9.226;2023-02-16T11:57:50;29.67;;;18.87;;
13204;SDS011;6667;52.634;9.226;2023-02-16T12:00:19;31.80;;;19.03;;
13204;SDS011;6667;52.634;9.226;2023-02-16T12:02:57;31.87;;;19.93;;
13204;SDS011;6667;52.634;9.226;2023-02-16T12:05:39;35.20;;;19.77;;
13204;SDS011;6667;52.634;9.226;2023-02-16T12:08:27;31.40;;;19.33;;
13204;SDS011;6667;52.634;9.226;2023-02-16T12:11:12;29.60;;;19.20;;
13204;SDS011;6667;52.634;9.226;2023-02-16T12:13:54;28.87;;;17.73;;
13204;SDS011;6667;52.634;9.226;2023-02-16T12:16:29;30.20;;;16.60;;
13204;SDS011;6667;52.634;9.226;2023-02-16T12:19:06;32.47;;;19.40;;
13204;SDS011;6667;52.634;9.226;2023-02-16T12:21:43;30.07;;;18.43;;
13204;SDS011;6667;52.634;9.226;2023-02-16T12:24:16;26.37;;;17.47;;
13204;SDS011;6667;52.634;9.226;2023-02-16T12:26:54;29.53;;;17.57;;
13204;SDS011;6667;52.634;9.226;2023-02-16T12:29:27;29.23;;;19.03;;
13204;SDS011;6667;52.634;9.226;2023-02-16T12:32:09;29.10;;;18.53;;
13204;SDS011;6667;52.634;9.226;2023-02-16T12:34:49;34.67;;;18.97;;
13204;SDS011;6667;52.634;9.226;2023-02-16T12:37:28;28.80;;;18.90;;
13204;SDS011;6667;52.634;9.226;2023-02-16T12:40:05;34.13;;;19.63;;
13204;SDS011;6667;52.634;9.226;2023-02-16T12:42:50;31.40;;;18.20;;
13204;SDS011;6667;52.634;9.226;2023-02-16T12:45:27;30.77;;;19.57;;
13204;SDS011;6667;52.634;9.226;2023-02-16T12:47:58;31.13;;;18.73;;
13204;SDS011;6667;52.634;9.226;2023-02-16T12:50:31;32.10;;;18.20;;
13204;SDS011;6667;52.634;9.226;2023-02-16T12:53:01;27.90;;;17.90;;
13204;SDS011;6667;52.634;9.226;2023-02-16T12:55:34;30.67;;;17.90;;
13204;SDS011;6667;52.634;9.226;2023-02-16T12:58:09;33.57;;;20.00;;
13204;SDS011;6667;52.634;9.226;2023-02-16T13:00:43;34.33;;;19.70;;
13204;SDS011;6667;52.634;9.226;2023-02-16T13:06:03;29.20;;;18.60;;
13204;SDS011;6667;52.634;9.226;2023-02-16T13:08:38;29.27;;;18.90;;
13204;SDS011;6667;52.634;9.226;2023-02-16T13:11:12;33.33;;;19.67;;
13204;SDS011;6667;52.634;9.226;2023-02-16T13:13:45;29.60;;;17.23;;
13204;SDS011;6667;52.634;9.226;2023-02-16T13:16:13;27.67;;;15.83;;
13204;SDS011;6667;52.634;9.226;2023-02-16T13:18:43;31.43;;;19.77;;
13204;SDS011;6667;52.634;9.226;2023-02-16T13:21:13;32.40;;;20.30;;
13204;SDS011;6667;52.634;9.226;2023-02-16T13:23:59;31.97;;;19.30;;
13204;SDS011;6667;52.634;9.226;2023-02-16T13:26:37;33.90;;;20.37;;
13204;SDS011;6667;52.634;9.226;2023-02-16T13:29:20;32.93;;;20.10;;
13204;SDS011;6667;52.634;9.226;2023-02-16T13:31:57;31.93;;;19.27;;
13204;SDS011;6667;52.634;9.226;2023-02-16T13:37:52;30.40;;;18.10;;
13204;SDS011;6667;52.634;9.226;2023-02-16T13:40:29;31.33;;;20.00;;
13204;SDS011;6667;52.634;9.226;2023-02-16T13:43:15;32.53;;;19.93;;
13204;SDS011;6667;52.634;9.226;2023-02-16T13:45:53;35.50;;;20.87;;
13204;SDS011;6667;52.634;9.226;2023-02-16T13:48:21;29.57;;;18.93;;
13204;SDS011;6667;52.634;9.226;2023-02-16T13:50:54;30.93;;;19.57;;
13204;SDS011;6667;52.634;9.226;2023-02-16T13:53:23;32.93;;;21.00;;
13204;SDS011;6667;52.634;9.226;2023-02-16T13:56:20;30.97;;;18.93;;
13204;SDS011;6667;52.634;9.226;2023-02-16T13:58:57;30.47;;;19.07;;
13204;SDS011;6667;52.634;9.226;2023-02-16T14:01:37;28.83;;;18.77;;
13204;SDS011;6667;52.634;9.226;2023-02-16T14:04:09;30.63;;;18.70;;
13204;SDS011;6667;52.634;9.226;2023-02-16T14:06:38;40.03;;;20.47;;
13204;SDS011;6667;52.634;9.226;2023-02-16T14:12:04;31.17;;;19.03;;
13204;SDS011;6667;52.634;9.226;2023-02-16T14:14:43;30.50;;;18.27;;
13204;SDS011;6667;52.634;9.226;2023-02-16T14:17:24;30.93;;;19.33;;
13204;SDS011;6667;52.634;9.226;2023-02-16T14:19:53;32.27;;;18.90;;
13204;SDS011;6667;52.634;9.226;2023-02-16T14:22:23;31.07;;;19.47;;
13204;SDS011;6667;52.634;9.226;2023-02-16T14:24:58;27.80;;;19.07;;
13204;SDS011;6667;52.634;9.226;2023-02-16T14:27:39;31.70;;;20.20;;
13204;SDS011;6667;52.634;9.226;2023-02-16T14:30:13;30.47;;;19.60;;
13204;SDS011;6667;52.634;9.226;2023-02-16T14:32:47;30.83;;;19.57;;
13204;SDS011;6667;52.634;9.226;2023-02-16T14:35:19;31.00;;;19.13;;
13204;SDS011;6667;52.634;9.226;2023-02-16T14:37:52;30.47;;;18.47;;
13204;SDS011;6667;52.634;9.226;2023-02-16T14:40:21;30.67;;;19.17;;
13204;SDS011;6667;52.634;9.226;2023-02-16T14:43:05;32.63;;;19.60;;
13204;SDS011;6667;52.634;9.226;2023-02-16T14:45:51;31.73;;;19.73;;
13204;SDS011;6667;52.634;9.226;2023-02-16T14:48:42;33.13;;;19.03;;
13204;SDS011;6667;52.634;9.226;2023-02-16T14:51:35;32.03;;;20.63;;
13204;SDS011;6667;52.634;9.226;2023-02-16T14:57:19;34.27;;;20.57;;
13204;SDS011;6667;52.634;9.226;2023-02-16T14:59:49;31.53;;;19.37;;
13204;SDS011;6667;52.634;9.226;2023-02-16T15:02:24;30.77;;;20.10;;
13204;SDS011;6667;52.634;9.226;2023-02-16T15:04:54;32.43;;;20.40;;
13204;SDS011;6667;52.634;9.226;2023-02-16T15:07:22;29.67;;;18.87;;
13204;SDS011;6667;52.634;9.226;2023-02-16T15:09:53;34.83;;;20.47;;
13204;SDS011;6667;52.634;9.226;2023-02-16T15:12:22;36.57;;;20.20;;